Time;durP1;ratioP1;P1;durP2;ratioP2;P2;SDS_P1;SDS_P2;PMS_P1;PMS_P2;Temp;Humidity;BMP_temperature;BMP_pressure;BME280_temperature;BME280_humidity;BME280_pressure;Samples;Min_cycle;Max_cycle;Signal;HPM_P1;HPM_P2
2023/06/25 00:01:25;;;;;;;11.15;3.60;;;;;;;19.74;76.49;101722.19;4999819;28;20022;-73
2023/06/25 00:03:51;;;;;;;6.90;3.72;;;;;;;19.70;76.83;101718.28;5008237;28;20404;-75
2023/06/25 00:06:19;;;;;;;6.88;4.03;;;;;;;19.65;76.52;101717.06;5012866;28;20386;-75
2023/06/25 00:08:45;;;;;;;8.32;3.60;;;;;;;19.62;76.83;101709.53;5002624;28;20386;-74
2023/06/25 00:11:10;;;;;;;8.10;3.72;;;;;;;19.56;76.62;101707.69;5009497;28;20034;-75
2023/06/25 00:13:36;;;;;;;5.25;3.20;;;;;;;19.53;76.84;101705.44;5008269;28;20038;-74
2023/06/25 00:16:01;;;;;;;6.35;4.10;;;;;;;19.50;77.05;101702.41;5009947;28;20477;-74
2023/06/25 00:18:27;;;;;;;6.97;4.47;;;;;;;19.48;77.04;101705.22;5011465;28;20657;-74
2023/06/25 00:20:55;;;;;;;6.18;4.10;;;;;;;19.47;76.86;101706.22;5000808;28;20022;-75
2023/06/25 00:23:21;;;;;;;6.25;3.78;;;;;;;19.44;77.38;101704.78;5002388;28;20034;-74
2023/06/25 00:25:46;;;;;;;11.13;3.83;;;;;;;19.42;77.39;101701.53;5002725;28;20038;-74
2023/06/25 00:28:11;;;;;;;7.00;3.45;;;;;;;19.39;77.51;101703.75;4990954;28;20057;-74
2023/06/25 00:30:38;;;;;;;9.48;4.40;;;;;;;19.37;77.82;101705.75;4995099;28;20306;-74
2023/06/25 00:33:04;;;;;;;6.28;3.97;;;;;;;19.34;78.13;101706.13;5004210;28;20026;-74
2023/06/25 00:36:00;;;;;;;10.63;4.30;;;;;;;19.30;78.28;101707.53;4992501;28;20125;-74
2023/06/25 00:38:27;;;;;;;6.30;3.65;;;;;;;19.23;78.94;101697.78;5012112;28;20647;-74
2023/06/25 00:40:53;;;;;;;6.43;3.45;;;;;;;19.17;79.47;101689.84;5004843;28;20030;-74
2023/06/25 00:43:21;;;;;;;8.68;3.63;;;;;;;19.10;80.14;101691.59;5000819;28;20046;-74
2023/06/25 00:45:46;;;;;;;8.35;4.53;;;;;;;19.05;80.43;101693.00;5012449;28;20021;-74
2023/06/25 00:48:12;;;;;;;7.53;4.15;;;;;;;19.02;80.66;101690.75;5006091;28;20030;-74
2023/06/25 00:50:38;;;;;;;8.38;3.65;;;;;;;19.00;81.07;101698.00;5008432;28;20030;-74
2023/06/25 00:53:08;;;;;;;5.43;3.88;;;;;;;18.98;81.05;101691.31;5006831;28;20025;-74
2023/06/25 00:55:34;;;;;;;7.57;4.30;;;;;;;18.97;81.11;101687.88;5011218;28;20057;-74
2023/06/25 00:58:00;;;;;;;9.10;3.60;;;;;;;18.95;81.04;101682.00;5010753;28;20036;-74
2023/06/25 01:00:28;;;;;;;6.15;3.75;;;;;;;18.91;81.39;101678.13;4987394;28;20034;-74
2023/06/25 01:03:24;;;;;;;7.65;3.90;;;;;;;18.88;81.64;101688.22;5009708;28;20140;-74
2023/06/25 01:05:57;;;;;;;11.65;4.10;;;;;;;18.81;81.94;101688.94;5004063;28;20081;-74
2023/06/25 01:08:28;;;;;;;6.63;4.05;;;;;;;18.76;82.29;101691.31;4998598;28;20508;-74
2023/06/25 01:10:55;;;;;;;6.97;3.63;;;;;;;18.70;82.51;101678.91;4992533;28;20033;-74
2023/06/25 01:13:20;;;;;;;5.47;3.80;;;;;;;18.67;82.75;101681.94;5003405;28;21349;-74
2023/06/25 01:15:45;;;;;;;5.95;3.50;;;;;;;18.64;83.04;101680.47;4984673;28;20030;-74
2023/06/25 01:18:13;;;;;;;7.50;4.28;;;;;;;18.54;83.47;101676.56;5006234;28;20041;-73
2023/06/25 01:20:40;;;;;;;5.72;3.90;;;;;;;18.49;83.87;101674.47;5012720;28;20628;-74
2023/06/25 01:23:09;;;;;;;6.47;4.20;;;;;;;18.46;84.09;101675.69;5010421;28;20033;-74
2023/06/25 01:25:36;;;;;;;6.78;3.92;;;;;;;18.44;84.44;101669.81;4992637;28;20052;-74
2023/06/25 01:28:02;;;;;;;7.15;4.05;;;;;;;18.40;84.60;101672.97;5008041;28;20219;-74
2023/06/25 01:30:31;;;;;;;5.90;3.85;;;;;;;18.30;85.13;101668.03;5007133;28;20525;-74
2023/06/25 01:33:00;;;;;;;8.13;4.03;;;;;;;18.19;85.59;101668.50;5004580;28;20033;-74
2023/06/25 01:35:25;;;;;;;8.05;4.00;;;;;;;18.09;86.04;101669.63;5002053;28;20049;-73
2023/06/25 01:37:51;;;;;;;6.43;4.03;;;;;;;18.01;86.49;101664.50;4996491;28;20589;-73
2023/06/25 01:40:17;;;;;;;11.07;4.35;;;;;;;17.96;86.98;101664.22;5005438;28;20038;-73
2023/06/25 01:42:43;;;;;;;7.50;3.80;;;;;;;17.94;87.63;101658.34;5014413;28;20107;-74
2023/06/25 01:45:09;;;;;;;6.32;3.97;;;;;;;17.91;87.93;101656.09;5009082;28;20060;-73
2023/06/25 01:47:37;;;;;;;8.25;4.00;;;;;;;17.93;87.62;101648.03;5004720;28;20034;-74
2023/06/25 01:50:08;;;;;;;10.18;4.50;;;;;;;17.96;87.57;101647.69;5007301;28;20038;-74
2023/06/25 01:52:34;;;;;;;6.90;4.03;;;;;;;17.96;87.57;101648.47;4983976;28;20505;-73
2023/06/25 01:55:00;;;;;;;11.00;4.65;;;;;;;17.95;87.94;101640.78;5003607;28;20038;-73
2023/06/25 01:57:26;;;;;;;7.88;4.20;;;;;;;17.94;87.74;101633.94;5007166;28;20412;-73
2023/06/25 01:59:52;;;;;;;7.25;4.10;;;;;;;17.92;88.04;101635.94;5001588;28;20041;-74
2023/06/25 02:02:17;;;;;;;7.45;4.32;;;;;;;17.85;88.37;101635.84;5007799;28;20037;-73
2023/06/25 02:04:43;;;;;;;6.78;3.97;;;;;;;17.75;88.64;101630.06;4991913;28;20041;-73
2023/06/25 02:07:08;;;;;;;8.52;4.20;;;;;;;17.68;89.07;101627.31;4988326;28;20049;-73
2023/06/25 02:09:37;;;;;;;7.93;4.20;;;;;;;17.67;89.27;101629.16;5009589;28;20046;-73
2023/06/25 02:12:03;;;;;;;6.88;4.03;;;;;;;17.65;89.09;101627.69;5006406;28;20060;-73
2023/06/25 02:14:29;;;;;;;10.20;4.72;;;;;;;17.59;89.53;101623.97;5009937;28;20042;-73
2023/06/25 02:16:54;;;;;;;8.05;4.43;;;;;;;17.54;90.04;101622.91;4995227;28;20084;-73
2023/06/25 02:19:20;;;;;;;6.95;4.05;;;;;;;17.51;90.19;101616.22;4989297;28;20042;-73
2023/06/25 02:21:45;;;;;;;10.65;4.22;;;;;;;17.50;90.35;101615.41;5011877;28;20057;-73
2023/06/25 02:24:11;;;;;;;7.50;4.15;;;;;;;17.50;90.46;101609.38;5013344;28;20038;-73
2023/06/25 02:26:36;;;;;;;6.85;4.40;;;;;;;17.45;90.91;101614.34;5008810;28;20080;-74
2023/06/25 02:29:01;;;;;;;11.13;4.55;;;;;;;17.45;91.29;101616.97;5008687;28;20108;-74
2023/06/25 02:31:27;;;;;;;9.30;4.28;;;;;;;17.47;91.49;101614.97;5003358;28;20399;-73
2023/06/25 02:33:53;;;;;;;8.30;4.38;;;;;;;17.50;91.36;101612.00;5002852;28;20057;-73
2023/06/25 02:36:18;;;;;;;9.18;4.45;;;;;;;17.53;90.93;101614.22;5002740;28;20589;-73
2023/06/25 02:38:44;;;;;;;7.28;4.40;;;;;;;17.56;90.53;101610.44;5011652;28;20034;-73
2023/06/25 02:41:09;;;;;;;8.05;4.28;;;;;;;17.58;90.38;101605.84;5010228;28;20037;-74
2023/06/25 02:43:35;;;;;;;13.48;4.80;;;;;;;17.59;90.33;101595.13;5006300;28;20050;-73
2023/06/25 02:46:00;;;;;;;10.15;4.65;;;;;;;17.60;89.92;101594.16;5010919;28;20049;-73
2023/06/25 02:48:26;;;;;;;9.23;4.60;;;;;;;17.60;90.19;101602.03;5004260;28;20087;-73
2023/06/25 02:50:52;;;;;;;10.05;4.70;;;;;;;17.60;90.01;101603.84;4994147;28;20511;-73
2023/06/25 02:53:17;;;;;;;9.00;4.80;;;;;;;17.52;90.42;101607.38;5009726;28;20033;-73
2023/06/25 02:55:43;;;;;;;10.02;4.93;;;;;;;17.43;91.09;101603.22;5004224;28;20515;-73
2023/06/25 02:58:08;;;;;;;7.55;4.65;;;;;;;17.35;91.43;101605.91;5009002;28;20388;-73
2023/06/25 03:00:35;;;;;;;7.05;4.28;;;;;;;17.27;91.84;101609.44;5008345;28;20037;-73
2023/06/25 03:03:00;;;;;;;9.75;4.43;;;;;;;17.15;92.57;101606.47;5009047;28;20027;-73
2023/06/25 03:05:26;;;;;;;10.05;4.47;;;;;;;17.04;93.19;101601.66;5029791;28;20128;-73
2023/06/25 03:07:57;;;;;;;8.70;4.88;;;;;;;16.99;93.45;101601.38;5011039;28;20436;-73
2023/06/25 03:10:26;;;;;;;7.07;4.68;;;;;;;17.00;93.74;101600.41;5013134;28;20099;-73
2023/06/25 03:12:53;;;;;;;10.73;5.68;;;;;;;16.99;93.83;101604.00;4998022;28;20085;-73
2023/06/25 03:15:18;;;;;;;11.05;5.68;;;;;;;16.87;94.75;101601.00;5010047;28;20053;-73
2023/06/25 03:17:45;;;;;;;7.80;4.05;;;;;;;16.83;94.96;101594.50;5007585;28;20785;-73
2023/06/25 03:20:12;;;;;;;9.65;4.68;;;;;;;16.86;95.10;101597.59;5006037;28;20037;-73
2023/06/25 03:22:37;;;;;;;10.25;4.93;;;;;;;16.90;94.86;101604.09;4997532;28;20079;-73
2023/06/25 03:25:05;;;;;;;10.30;5.03;;;;;;;16.90;95.11;101598.84;5008972;28;20030;-73
2023/06/25 03:27:33;;;;;;;11.90;4.53;;;;;;;16.87;95.14;101601.81;5011381;28;20042;-73
2023/06/25 03:29:59;;;;;;;12.32;5.10;;;;;;;16.85;95.72;101597.75;5015029;28;20084;-73
2023/06/25 03:32:25;;;;;;;9.75;4.85;;;;;;;16.89;95.83;101605.06;5012433;28;20060;-73
2023/06/25 03:34:51;;;;;;;9.00;5.00;;;;;;;16.92;96.04;101594.25;5012667;28;20411;-73
2023/06/25 03:37:17;;;;;;;7.00;4.40;;;;;;;16.93;95.41;101595.06;5011713;28;20040;-73
2023/06/25 03:39:43;;;;;;;7.70;4.70;;;;;;;16.91;95.75;101594.41;5009076;28;20039;-73
2023/06/25 03:42:09;;;;;;;10.82;5.20;;;;;;;16.90;96.05;101590.19;4992336;28;20040;-73
2023/06/25 03:44:34;;;;;;;9.18;4.80;;;;;;;16.91;95.71;101590.03;5010370;28;20050;-73
2023/06/25 03:47:01;;;;;;;12.60;5.68;;;;;;;16.95;95.35;101587.81;4994142;28;20027;-73
2023/06/25 03:49:26;;;;;;;10.38;4.45;;;;;;;16.95;95.07;101587.81;5015071;28;20046;-73
2023/06/25 03:51:52;;;;;;;8.45;4.60;;;;;;;16.93;95.30;101588.03;5017918;28;20517;-73
2023/06/25 03:54:17;;;;;;;10.40;4.70;;;;;;;16.90;95.75;101584.94;5013794;28;20046;-73
2023/06/25 03:56:44;;;;;;;10.55;4.85;;;;;;;16.88;96.20;101587.75;5011023;28;20058;-73
2023/06/25 03:59:09;;;;;;;12.85;5.47;;;;;;;16.85;96.34;101585.47;5010309;28;20050;-72
2023/06/25 04:01:35;;;;;;;15.38;4.90;;;;;;;16.83;96.85;101589.28;5004535;28;20027;-73
2023/06/25 04:04:00;;;;;;;14.90;5.03;;;;;;;16.84;97.10;101585.63;5012930;28;20676;-73
2023/06/25 04:06:29;;;;;;;7.93;4.63;;;;;;;16.86;97.02;101594.97;5002757;28;20081;-73
2023/06/25 04:08:56;;;;;;;13.35;5.18;;;;;;;16.91;96.95;101583.94;4994916;28;20058;-73
2023/06/25 04:11:21;;;;;;;12.68;5.18;;;;;;;16.93;96.47;101592.44;5011176;28;20045;-73
2023/06/25 04:13:47;;;;;;;7.20;4.32;;;;;;;16.95;96.74;101594.88;5011386;28;20038;-72
2023/06/25 04:16:12;;;;;;;10.88;5.35;;;;;;;16.96;96.70;101597.31;4992746;28;20030;-73
2023/06/25 04:18:41;;;;;;;7.93;5.13;;;;;;;16.97;96.66;101592.88;5020738;28;20046;-73
2023/06/25 04:21:07;;;;;;;12.35;5.40;;;;;;;17.01;96.52;101591.53;5012720;28;20033;-73
2023/06/25 04:23:33;;;;;;;9.18;4.68;;;;;;;17.04;96.34;101583.31;5009494;28;20041;-73
2023/06/25 04:25:59;;;;;;;7.30;4.80;;;;;;;17.08;96.13;101590.66;5010858;28;20027;-74
2023/06/25 04:28:25;;;;;;;7.97;5.03;;;;;;;17.12;95.90;101589.31;5007693;28;20030;-73
2023/06/25 04:30:51;;;;;;;11.68;5.32;;;;;;;17.18;95.10;101592.19;5015090;28;20072;-73
2023/06/25 04:33:18;;;;;;;14.65;6.20;;;;;;;17.24;93.67;101581.81;5011079;28;20046;-73
2023/06/25 04:35:44;;;;;;;8.40;5.28;;;;;;;17.28;92.42;101579.63;5009244;28;20508;-73
2023/06/25 04:38:10;;;;;;;12.95;6.07;;;;;;;17.46;89.93;101584.50;4991529;28;20027;-72
2023/06/25 04:40:35;;;;;;;8.90;5.40;;;;;;;17.49;89.43;101581.50;4994807;28;20042;-73
2023/06/25 04:43:00;;;;;;;11.18;5.85;;;;;;;17.50;90.41;101583.97;5011947;28;20030;-73
2023/06/25 04:45:26;;;;;;;10.75;5.55;;;;;;;17.53;90.67;101577.53;5013508;28;20611;-73
2023/06/25 04:47:51;;;;;;;9.50;5.40;;;;;;;17.61;90.24;101576.59;5012489;28;20072;-73
2023/06/25 04:50:17;;;;;;;10.38;5.22;;;;;;;17.57;90.96;101576.16;5007914;28;20407;-74
2023/06/25 04:52:43;;;;;;;11.57;6.38;;;;;;;17.65;90.83;101576.06;5006470;28;20037;-73
2023/06/25 04:55:08;;;;;;;12.13;5.47;;;;;;;17.68;90.01;101573.06;5011748;28;20049;-72
2023/06/25 04:57:34;;;;;;;10.80;5.97;;;;;;;17.75;89.22;101574.97;5007359;28;20108;-73
2023/06/25 04:59:59;;;;;;;14.27;5.88;;;;;;;18.00;87.75;101578.09;5013188;28;20046;-74
2023/06/25 05:02:25;;;;;;;14.68;4.95;;;;;;;18.03;87.33;101582.97;5004418;28;20041;-74
2023/06/25 05:04:50;;;;;;;13.38;6.07;;;;;;;18.11;87.00;101582.84;5006519;28;20458;-74
2023/06/25 05:07:16;;;;;;;11.27;5.57;;;;;;;18.22;85.53;101584.16;5011789;28;20044;-72
2023/06/25 05:09:41;;;;;;;11.45;5.40;;;;;;;18.29;84.38;101582.41;5011055;28;20042;-73
2023/06/25 05:12:07;;;;;;;9.50;5.25;;;;;;;18.42;84.63;101574.66;5007016;28;20048;-72
2023/06/25 05:14:32;;;;;;;10.60;6.00;;;;;;;18.39;83.53;101579.47;5000573;28;20519;-75
2023/06/25 05:16:57;;;;;;;12.02;5.38;;;;;;;18.48;83.16;101581.78;5002260;28;20487;-74
2023/06/25 05:19:23;;;;;;;10.13;5.05;;;;;;;18.59;84.69;101579.63;4991225;28;20034;-74
2023/06/25 05:21:49;;;;;;;9.82;4.95;;;;;;;18.71;83.72;101586.00;4989786;28;20061;-73
2023/06/25 05:24:14;;;;;;;16.45;5.70;;;;;;;18.77;81.74;101579.97;5011012;28;20046;-74
2023/06/25 05:26:40;;;;;;;12.93;4.93;;;;;;;18.95;81.92;101587.41;5008834;28;20033;-73
2023/06/25 05:29:05;;;;;;;12.18;4.63;;;;;;;19.04;81.79;101588.03;4990522;28;20042;-74
2023/06/25 05:31:30;;;;;;;12.68;5.55;;;;;;;19.22;80.90;101585.72;5002163;28;20053;-73
2023/06/25 05:33:56;;;;;;;12.77;5.18;;;;;;;19.32;80.46;101587.19;5004951;28;20041;-71
2023/06/25 05:36:22;;;;;;;13.38;5.20;;;;;;;19.39;79.88;101582.78;5010023;28;20033;-73
2023/06/25 05:38:47;;;;;;;8.48;4.60;;;;;;;19.42;78.52;101585.84;5004999;28;20540;-74
2023/06/25 05:41:13;;;;;;;10.63;5.40;;;;;;;19.57;77.34;101590.13;5009157;28;20033;-74
2023/06/25 05:43:38;;;;;;;8.57;4.20;;;;;;;19.67;78.65;101592.41;5003088;28;20256;-74
2023/06/25 05:46:04;;;;;;;16.45;5.47;;;;;;;19.84;76.72;101588.44;5005009;28;20060;-73
2023/06/25 05:48:30;;;;;;;10.45;4.95;;;;;;;20.05;76.25;101594.56;5007873;28;20046;-74
2023/06/25 05:50:55;;;;;;;8.70;4.32;;;;;;;20.21;76.41;101586.28;5006308;28;20076;-75
2023/06/25 05:53:23;;;;;;;11.07;4.10;;;;;;;20.35;73.76;101585.28;5006545;28;20061;-74
2023/06/25 05:55:49;;;;;;;10.02;4.57;;;;;;;20.40;72.72;101590.75;5009506;28;20133;-74
2023/06/25 05:58:14;;;;;;;9.40;3.67;;;;;;;20.50;73.02;101581.66;5008087;28;20037;-74
2023/06/25 06:00:40;;;;;;;14.45;4.97;;;;;;;20.81;71.24;101583.66;5009085;28;20076;-75
2023/06/25 06:03:05;;;;;;;10.70;4.90;;;;;;;20.87;71.13;101582.88;5017344;28;20033;-74
2023/06/25 06:05:31;;;;;;;14.00;4.63;;;;;;;21.06;70.01;101577.75;5007493;28;20053;-72
2023/06/25 06:07:56;;;;;;;9.73;4.15;;;;;;;21.18;70.59;101584.00;4999223;28;20044;-73
2023/06/25 06:10:22;;;;;;;10.27;4.28;;;;;;;21.39;68.92;101585.56;5006281;28;20062;-74
2023/06/25 06:12:47;;;;;;;11.98;3.50;;;;;;;21.59;67.05;101580.22;4999624;28;20057;-74
2023/06/25 06:15:13;;;;;;;10.60;3.55;;;;;;;21.74;64.87;101579.97;5002173;28;20200;-74
2023/06/25 06:17:38;;;;;;;11.95;3.90;;;;;;;21.95;65.22;101576.16;5010181;28;20037;-73
2023/06/25 06:20:05;;;;;;;7.10;3.63;;;;;;;22.13;64.50;101573.63;5004036;28;20045;-74
2023/06/25 06:22:30;;;;;;;9.95;4.07;;;;;;;22.23;63.85;101572.34;4992353;28;20680;-73
2023/06/25 06:24:55;;;;;;;8.23;4.50;;;;;;;22.49;63.29;101568.66;5013747;28;20041;-74
2023/06/25 06:27:21;;;;;;;9.55;4.00;;;;;;;22.78;63.65;101574.31;5012169;28;20041;-74
2023/06/25 06:29:46;;;;;;;9.85;3.55;;;;;;;22.94;60.83;101571.09;5004318;28;20038;-73
2023/06/25 06:32:12;;;;;;;8.07;3.25;;;;;;;23.18;61.69;101565.97;5005450;28;20030;-73
2023/06/25 06:34:37;;;;;;;9.50;3.88;;;;;;;23.49;60.75;101563.16;5007304;28;20042;-75
2023/06/25 06:37:03;;;;;;;12.10;5.05;;;;;;;23.75;59.70;101557.72;5006552;28;20038;-73
2023/06/25 06:39:29;;;;;;;8.60;3.40;;;;;;;24.02;59.54;101563.47;5013504;28;20053;-75
2023/06/25 06:41:54;;;;;;;12.18;3.53;;;;;;;24.31;59.17;101553.03;5012670;28;20040;-75
2023/06/25 06:44:23;;;;;;;7.03;4.18;;;;;;;24.51;58.25;101550.84;4994243;28;20528;-75
2023/06/25 06:46:49;;;;;;;8.38;4.18;;;;;;;24.87;57.33;101554.28;5015434;28;20034;-74
2023/06/25 06:49:17;;;;;;;7.90;3.75;;;;;;;25.11;54.51;101548.91;5008879;28;20045;-75
2023/06/25 06:51:43;;;;;;;12.80;4.03;;;;;;;25.23;54.01;101553.19;5012873;28;20030;-74
2023/06/25 06:54:08;;;;;;;8.43;3.60;;;;;;;25.33;53.09;101546.47;5013499;28;20328;-73
2023/06/25 06:56:34;;;;;;;4.93;3.42;;;;;;;25.24;54.02;101546.03;5019804;28;20033;-73
2023/06/25 06:59:00;;;;;;;7.10;3.05;;;;;;;25.69;53.45;101553.22;5008587;28;20038;-74
2023/06/25 07:01:26;;;;;;;5.60;2.95;;;;;;;25.80;50.25;101552.34;5008858;28;20092;-73
2023/06/25 07:03:52;;;;;;;9.80;3.50;;;;;;;26.11;50.60;101538.81;5008658;28;20069;-75
2023/06/25 07:06:17;;;;;;;7.25;3.70;;;;;;;26.37;49.77;101540.81;5013336;28;20511;-75
2023/06/25 07:08:43;;;;;;;10.13;3.45;;;;;;;26.71;48.62;101542.59;5009949;28;20038;-75
2023/06/25 07:11:08;;;;;;;7.07;3.85;;;;;;;27.02;48.54;101545.66;5010983;28;20601;-74
2023/06/25 07:13:34;;;;;;;9.52;3.67;;;;;;;27.43;48.04;101546.94;5011857;28;20685;-74
2023/06/25 07:15:59;;;;;;;6.38;3.63;;;;;;;27.66;46.10;101535.16;5013024;28;20485;-75
2023/06/25 07:18:25;;;;;;;10.38;4.10;;;;;;;27.74;46.23;101533.88;5009390;28;20041;-74
2023/06/25 07:20:50;;;;;;;8.63;3.60;;;;;;;27.90;46.29;101543.66;5008462;28;20022;-73
2023/06/25 07:23:16;;;;;;;6.22;3.95;;;;;;;27.95;44.94;101535.69;5013055;28;20034;-74
2023/06/25 07:25:44;;;;;;;6.00;3.90;;;;;;;28.22;46.05;101536.66;5010701;28;20030;-74
2023/06/25 07:28:10;;;;;;;6.57;3.55;;;;;;;28.53;44.51;101537.69;5011366;28;20033;-74
2023/06/25 07:30:37;;;;;;;9.65;4.10;;;;;;;28.87;44.18;101535.41;4992830;28;20060;-74
2023/06/25 07:33:03;;;;;;;6.85;3.40;;;;;;;29.11;43.96;101540.31;4990437;28;20025;-74
2023/06/25 07:35:28;;;;;;;6.68;4.20;;;;;;;29.26;42.16;101527.03;5009818;28;20065;-75
2023/06/25 07:37:54;;;;;;;6.75;3.88;;;;;;;29.08;42.23;101528.31;5006630;28;20026;-75
2023/06/25 07:40:19;;;;;;;7.68;3.90;;;;;;;29.23;43.03;101532.09;4992554;28;20053;-75
2023/06/25 07:42:45;;;;;;;8.23;3.70;;;;;;;29.38;43.21;101525.97;4996832;28;20404;-74
2023/06/25 07:45:11;;;;;;;7.88;4.30;;;;;;;29.65;42.57;101533.75;5014690;28;20045;-74
2023/06/25 07:47:37;;;;;;;9.30;3.80;;;;;;;29.87;43.97;101528.16;4991926;28;20029;-75
2023/06/25 07:50:03;;;;;;;7.97;4.57;;;;;;;30.08;41.87;101521.72;5002110;28;20038;-74
2023/06/25 07:52:28;;;;;;;12.32;4.53;;;;;;;30.30;42.44;101517.13;5012078;28;20045;-74
2023/06/25 07:54:54;;;;;;;6.35;4.03;;;;;;;30.16;42.02;101522.22;5004302;28;20509;-77
2023/06/25 07:57:19;;;;;;;7.43;4.25;;;;;;;29.99;42.67;101518.00;4995449;28;20026;-74
2023/06/25 07:59:45;;;;;;;10.18;3.88;;;;;;;29.76;40.77;101522.03;5030415;28;20046;-75
2023/06/25 08:02:11;;;;;;;7.40;4.25;;;;;;;29.94;41.58;101520.66;5011662;28;20099;-73
2023/06/25 08:04:37;;;;;;;6.88;3.60;;;;;;;30.33;41.05;101521.94;5017549;28;20045;-77
2023/06/25 08:07:03;;;;;;;8.75;3.88;;;;;;;30.60;40.65;101524.28;5028979;28;20022;-74
2023/06/25 08:09:28;;;;;;;7.60;4.68;;;;;;;30.51;40.29;101517.91;5011764;28;20488;-73
2023/06/25 08:11:54;;;;;;;10.13;4.25;;;;;;;30.66;40.20;101521.28;5004182;28;20030;-73
2023/06/25 08:14:20;;;;;;;7.82;3.45;;;;;;;31.02;40.92;101517.69;5017890;28;20054;-74
2023/06/25 08:16:46;;;;;;;11.63;4.80;;;;;;;30.97;39.38;101515.84;5009915;28;20026;-74
2023/06/25 08:19:11;;;;;;;8.60;3.97;;;;;;;30.84;39.21;101519.09;5010857;28;20057;-74
2023/06/25 08:21:36;;;;;;;7.65;4.13;;;;;;;31.09;38.82;101515.50;5008538;28;20044;-75
2023/06/25 08:24:03;;;;;;;6.70;4.07;;;;;;;31.33;39.65;101520.19;5004501;28;20624;-74
2023/06/25 08:26:28;;;;;;;9.85;4.40;;;;;;;31.53;38.29;101513.88;5015184;28;20038;-75
2023/06/25 08:28:54;;;;;;;6.63;3.83;;;;;;;31.76;38.95;101518.53;5007394;28;20042;-74
2023/06/25 08:31:19;;;;;;;13.27;6.05;;;;;;;31.93;37.67;101512.72;5011172;28;20060;-75
2023/06/25 08:33:45;;;;;;;10.13;4.60;;;;;;;31.99;38.13;101510.81;5012261;28;20045;-75
2023/06/25 08:36:10;;;;;;;13.32;4.35;;;;;;;32.17;38.27;101514.66;5010847;28;20026;-75
2023/06/25 08:38:36;;;;;;;5.65;4.22;;;;;;;32.50;39.11;101504.88;5006659;28;20486;-74
2023/06/25 08:41:02;;;;;;;5.88;3.72;;;;;;;32.73;37.48;101508.63;5006623;28;20022;-75
2023/06/25 08:43:28;;;;;;;9.63;4.50;;;;;;;32.75;37.34;101503.78;5011063;28;20634;-75
2023/06/25 08:45:53;;;;;;;6.82;4.47;;;;;;;33.03;36.81;101503.94;4996576;28;20022;-74
2023/06/25 08:48:23;;;;;;;5.07;3.85;;;;;;;33.26;37.63;101498.78;5004944;28;20041;-74
2023/06/25 08:50:55;;;;;;;6.72;4.60;;;;;;;33.45;38.01;101496.84;5009364;28;20075;-75
2023/06/25 08:53:20;;;;;;;8.15;3.92;;;;;;;33.66;36.15;101492.00;5007533;28;20029;-75
2023/06/25 08:55:48;;;;;;;5.35;3.80;;;;;;;33.55;36.84;101494.00;5009375;28;20418;-75
2023/06/25 08:58:14;;;;;;;6.47;3.55;;;;;;;33.90;35.94;101494.50;5008307;28;20112;-74
2023/06/25 09:00:39;;;;;;;5.93;4.30;;;;;;;33.83;34.99;101496.78;5015637;28;20038;-75
2023/06/25 09:03:05;;;;;;;5.75;3.70;;;;;;;33.78;34.82;101496.88;5005664;28;20030;-75
2023/06/25 09:05:33;;;;;;;7.93;4.13;;;;;;;33.87;33.71;101495.09;4992541;28;20582;-76
2023/06/25 09:07:58;;;;;;;8.82;4.13;;;;;;;33.81;34.16;101496.28;5006741;28;20033;-76
2023/06/25 09:10:26;;;;;;;5.63;3.95;;;;;;;33.86;34.37;101490.81;4998063;28;20496;-76
2023/06/25 09:12:52;;;;;;;6.50;4.40;;;;;;;33.37;33.57;101492.16;5013896;28;20033;-75
2023/06/25 09:15:24;;;;;;;9.07;4.05;;;;;;;33.81;34.60;101490.09;5031624;28;20115;-76
2023/06/25 09:17:55;;;;;;;5.07;3.95;;;;;;;33.91;34.66;101488.03;5009039;28;20427;-75
2023/06/25 09:20:21;;;;;;;6.60;4.00;;;;;;;34.04;34.84;101482.94;4989192;28;20506;-76
2023/06/25 09:22:56;;;;;;;6.95;4.38;;;;;;;33.75;33.01;101494.78;5014575;28;20030;-75
2023/06/25 09:25:28;;;;;;;5.38;3.80;;;;;;;33.74;33.23;101482.44;5008368;28;20134;-74
2023/06/25 09:27:54;;;;;;;6.57;4.80;;;;;;;33.88;32.99;101480.53;5007366;28;20029;-77
2023/06/25 09:30:22;;;;;;;8.63;3.85;;;;;;;33.96;34.54;101478.25;4994504;28;20057;-76
2023/06/25 09:32:52;;;;;;;6.18;4.15;;;;;;;34.02;35.55;101471.69;5008376;28;20061;-75
2023/06/25 09:35:22;;;;;;;6.68;4.10;;;;;;;34.05;31.64;101469.19;5008085;28;20137;-74
2023/06/25 09:37:51;;;;;;;5.38;4.13;;;;;;;34.24;33.08;101463.72;5010894;28;20030;-75
2023/06/25 09:40:16;;;;;;;6.07;4.32;;;;;;;34.30;33.00;101465.25;5007155;28;20038;-76
2023/06/25 09:42:46;;;;;;;7.35;4.53;;;;;;;34.12;32.33;101472.28;5009352;28;20072;-73
2023/06/25 09:45:15;;;;;;;5.28;3.97;;;;;;;34.13;34.55;101463.13;5007273;28;20034;-76
2023/06/25 09:47:46;;;;;;;6.95;4.18;;;;;;;34.25;33.96;101457.28;5004603;28;20038;-76
2023/06/25 09:50:32;;;;;;;4.25;3.72;;;;;;;34.30;34.27;101453.66;5008241;28;20046;-75
2023/06/25 09:53:02;;;;;;;4.22;3.50;;;;;;;34.58;32.36;101456.31;4978249;28;20041;-75
2023/06/25 09:55:28;;;;;;;5.72;3.65;;;;;;;34.54;31.99;101449.94;5005246;28;20508;-75
2023/06/25 09:57:55;;;;;;;7.47;3.67;;;;;;;34.48;30.70;101447.34;4990007;28;20138;-75
2023/06/25 10:00:22;;;;;;;6.65;4.13;;;;;;;34.41;31.97;101441.59;4990272;28;20516;-75
2023/06/25 10:02:49;;;;;;;6.78;3.97;;;;;;;34.33;30.53;101442.31;5013166;28;20077;-75
2023/06/25 10:05:15;;;;;;;6.35;3.72;;;;;;;34.35;32.03;101439.31;5010956;28;20100;-76
2023/06/25 10:07:43;;;;;;;4.95;3.85;;;;;;;34.26;30.68;101442.72;4999503;28;20428;-77
2023/06/25 10:10:29;;;;;;;5.63;4.53;;;;;;;34.11;32.28;101440.31;5009410;28;20045;-76
2023/06/25 10:12:54;;;;;;;7.30;3.88;;;;;;;34.22;31.89;101435.56;5005905;28;20052;-76
2023/06/25 10:15:28;;;;;;;5.55;3.72;;;;;;;34.22;33.18;101433.66;5006782;28;20054;-75
2023/06/25 10:17:54;;;;;;;7.35;4.10;;;;;;;34.06;33.53;101437.75;5008081;28;20481;-75
2023/06/25 10:20:31;;;;;;;5.10;3.97;;;;;;;34.14;33.29;101431.66;5009210;28;20128;-75
2023/06/25 10:23:13;;;;;;;5.53;3.92;;;;;;;34.16;33.34;101425.97;4994007;28;20076;-77
2023/06/25 10:25:40;;;;;;;8.50;3.70;;;;;;;34.06;33.10;101432.38;4992481;28;20046;-76
2023/06/25 10:28:13;;;;;;;8.50;4.57;;;;;;;34.16;33.09;101413.34;5001358;28;20045;-77
2023/06/25 10:30:45;;;;;;;6.32;4.43;;;;;;;34.13;32.56;101424.66;5013678;28;20255;-75
2023/06/25 10:33:14;;;;;;;5.57;4.25;;;;;;;33.71;33.09;101415.81;5006177;28;20096;-75
2023/06/25 10:35:40;;;;;;;12.23;4.18;;;;;;;33.48;33.20;101418.34;5006032;28;20033;-76
2023/06/25 10:38:06;;;;;;;8.27;4.18;;;;;;;33.30;33.07;101416.50;5006626;28;20045;-77
2023/06/25 10:40:33;;;;;;;9.18;4.32;;;;;;;33.17;33.02;101408.13;4987356;28;20080;-75
2023/06/25 10:42:59;;;;;;;9.65;4.50;;;;;;;33.21;33.80;101402.16;5005335;28;20162;-74
2023/06/25 10:45:24;;;;;;;6.95;4.07;;;;;;;33.16;33.75;101401.16;5021849;28;20617;-76
2023/06/25 10:48:10;;;;;;;5.97;4.13;;;;;;;33.37;33.81;101406.19;4986360;28;20034;-76
2023/06/25 10:50:36;;;;;;;7.13;3.83;;;;;;;33.66;33.35;101405.16;5015907;28;20045;-76
2023/06/25 10:53:07;;;;;;;6.70;4.68;;;;;;;33.62;32.73;101404.91;5029025;28;20134;-77
2023/06/25 10:55:33;;;;;;;6.93;4.53;;;;;;;33.81;33.94;101404.84;5014846;28;20414;-75
2023/06/25 10:58:01;;;;;;;5.45;3.83;;;;;;;33.90;34.00;101397.69;5011737;28;20034;-75
2023/06/25 11:00:30;;;;;;;5.70;4.20;;;;;;;34.05;34.29;101393.09;5014775;28;20056;-75
2023/06/25 11:02:55;;;;;;;6.32;3.90;;;;;;;33.92;33.47;101392.00;5013996;28;20030;-75
2023/06/25 11:05:33;;;;;;;8.00;3.97;;;;;;;33.95;32.97;101394.09;5003979;28;20119;-74
2023/06/25 11:07:58;;;;;;;5.45;3.90;;;;;;;33.62;32.50;101396.84;5006140;28;20548;-77
2023/06/25 11:10:24;;;;;;;4.72;3.70;;;;;;;33.61;30.86;101395.28;5004276;28;20050;-75
2023/06/25 11:12:50;;;;;;;5.28;3.78;;;;;;;33.58;32.89;101393.16;5001708;28;20500;-76
2023/06/25 11:15:17;;;;;;;5.97;4.40;;;;;;;33.72;33.04;101385.94;5014114;28;20155;-76
2023/06/25 11:17:44;;;;;;;6.30;3.70;;;;;;;33.79;32.32;101382.84;4987921;28;20031;-76
2023/06/25 11:20:09;;;;;;;6.13;3.67;;;;;;;33.45;31.36;101384.00;5011599;28;20037;-76